createdAt,value
2023-04-22T00:00:08.268Z,0
2023-04-22T00:01:24.000Z,0
2023-04-22T00:02:22.654Z,0
2023-04-22T00:03:56.000Z,0
2023-04-22T00:04:55.162Z,0
2023-04-22T00:06:29.000Z,0
2023-04-22T00:07:27.548Z,0
2023-04-22T00:09:01.764Z,0
2023-04-22T00:10:17.000Z,0
2023-04-22T00:11:34.000Z,0
2023-04-22T00:12:50.000Z,0
2023-04-22T00:14:06.545Z,0
2023-04-22T00:15:49.000Z,0
2023-04-22T00:16:38.000Z,0
2023-04-22T00:17:37.094Z,0
2023-04-22T00:19:11.307Z,0
2023-04-22T00:20:27.511Z,0
2023-04-22T00:21:42.000Z,0
2023-04-22T00:22:40.883Z,0
2023-04-22T00:24:15.095Z,0
2023-04-22T00:25:31.000Z,0
2023-04-22T00:26:47.000Z,0
2023-04-22T00:28:03.677Z,0
2023-04-22T00:29:01.849Z,0
2023-04-22T00:30:18.042Z,0
2023-04-22T00:31:52.269Z,0
2023-04-22T00:33:08.000Z,0
2023-04-22T00:34:24.647Z,0
2023-04-22T00:35:40.837Z,0
2023-04-22T00:36:57.000Z,0
2023-04-22T00:38:13.202Z,0
2023-04-22T00:39:29.418Z,0
2023-04-22T00:40:26.605Z,0
2023-04-22T00:42:00.000Z,0
2023-04-22T00:43:17.022Z,0
2023-04-22T00:44:33.210Z,0
2023-04-22T00:45:31.379Z,0
2023-04-22T00:47:05.571Z,0
2023-04-22T00:48:21.000Z,0
2023-04-22T00:49:37.000Z,0
2023-04-22T00:50:54.000Z,0
2023-04-22T00:52:10.376Z,0
2023-04-22T00:53:52.000Z,0
2023-04-22T00:54:42.000Z,0
2023-04-22T00:55:58.923Z,0
2023-04-22T00:57:14.000Z,0
2023-04-22T00:58:12.326Z,0
2023-04-22T00:59:46.537Z,0
2023-04-22T01:00:44.712Z,0
2023-04-22T01:02:18.938Z,0
2023-04-22T01:03:35.098Z,0
2023-04-22T01:04:51.000Z,0
2023-04-22T01:05:49.485Z,0
2023-04-22T01:07:23.700Z,0
2023-04-22T01:08:39.895Z,0
2023-04-22T01:09:56.000Z,0
2023-04-22T01:10:54.257Z,0
2023-04-22T01:12:28.000Z,0
2023-04-22T01:14:11.000Z,0
2023-04-22T01:15:00.871Z,0
2023-04-22T01:16:16.046Z,0
2023-04-22T01:17:14.240Z,0
2023-04-22T01:18:30.433Z,0
2023-04-22T01:20:04.000Z,0
2023-04-22T01:21:02.819Z,0
2023-04-22T01:22:37.000Z,0
2023-04-22T01:23:53.235Z,0
2023-04-22T01:24:51.398Z,0
2023-04-22T01:26:07.591Z,0
2023-04-22T01:27:41.802Z,0
2023-04-22T01:28:57.000Z,0
2023-04-22T01:29:56.169Z,0
2023-04-22T01:31:56.000Z,0
2023-04-22T01:32:28.555Z,0
2023-04-22T01:34:02.767Z,0
2023-04-22T01:35:18.941Z,0
2023-04-22T01:36:35.165Z,0
2023-04-22T01:38:16.000Z,0
2023-04-22T01:38:48.536Z,0
2023-04-22T01:40:22.000Z,0
2023-04-22T01:41:38.000Z,0
2023-04-22T01:42:55.138Z,0
2023-04-22T01:43:53.308Z,0
2023-04-22T01:45:09.501Z,0
2023-04-22T01:46:43.720Z,0
2023-04-22T01:47:59.000Z,0
2023-04-22T01:48:58.081Z,0
2023-04-22T01:50:32.000Z,0
2023-04-22T01:51:48.496Z,0
2023-04-22T01:53:04.684Z,0
2023-04-22T01:54:20.852Z,0
2023-04-22T01:56:03.000Z,0
2023-04-22T01:56:53.000Z,0
2023-04-22T01:58:09.455Z,0
2023-04-22T01:59:06.641Z,0
2023-04-22T02:00:40.000Z,0
2023-04-22T02:01:39.027Z,0
2023-04-22T02:03:13.220Z,0
2023-04-22T02:04:11.413Z,0
2023-04-22T02:05:45.605Z,0
2023-04-22T02:07:01.798Z,0
2023-04-22T02:08:17.991Z,0
2023-04-22T02:09:34.184Z,0
2023-04-22T02:10:50.397Z,0
2023-04-22T02:12:06.596Z,0
2023-04-22T02:13:49.000Z,0
2023-04-22T02:14:20.955Z,0
2023-04-22T02:15:54.000Z,0
2023-04-22T02:17:36.000Z,0
2023-04-22T02:18:26.000Z,0
2023-04-22T02:19:42.000Z,0
2023-04-22T02:20:58.000Z,0
2023-04-22T02:22:15.150Z,0
2023-04-22T02:23:31.359Z,0
2023-04-22T02:24:29.516Z,0
2023-04-22T02:26:03.000Z,0
2023-04-22T02:27:19.000Z,0
2023-04-22T02:28:36.094Z,0
2023-04-22T02:29:34.287Z,0
2023-04-22T02:30:50.481Z,0
2023-04-22T02:32:23.695Z,0
2023-04-22T02:34:06.000Z,0
2023-04-22T02:34:38.081Z,0
2023-04-22T02:36:12.000Z,0
2023-04-22T02:37:10.467Z,0
2023-04-22T02:38:44.692Z,0
2023-04-22T02:39:42.852Z,0
2023-04-22T02:40:59.045Z,0
2023-04-22T02:42:15.238Z,0
2023-04-22T02:43:49.462Z,0
2023-04-22T02:45:05.000Z,0
2023-04-22T02:46:21.844Z,0
2023-04-22T02:47:20.010Z,0
2023-04-22T02:48:54.000Z,0
2023-04-22T02:49:52.396Z,0
2023-04-22T02:51:26.626Z,0
2023-04-22T02:52:42.903Z,0
2023-04-22T02:53:59.000Z,0
2023-04-22T02:55:15.318Z,0
2023-04-22T02:56:13.483Z,0
2023-04-22T02:57:47.676Z,0
2023-04-22T02:59:03.000Z,0
2023-04-22T03:00:20.000Z,0
2023-04-22T03:01:36.294Z,0
2023-04-22T03:02:52.487Z,0
2023-04-22T03:04:08.000Z,0
2023-04-22T03:05:24.000Z,0
2023-04-22T03:06:41.000Z,0
2023-04-22T03:07:39.220Z,0
2023-04-22T03:08:55.535Z,0
2023-04-22T03:10:29.000Z,0
2023-04-22T03:11:45.942Z,0
2023-04-22T03:12:44.113Z,0
2023-04-22T03:14:18.000Z,0
2023-04-22T03:15:16.499Z,0
2023-04-22T03:16:50.728Z,0
2023-04-22T03:17:48.884Z,0
2023-04-22T03:19:23.000Z,0
2023-04-22T03:20:39.291Z,0
2023-04-22T03:21:55.000Z,0
2023-04-22T03:23:11.000Z,0
2023-04-22T03:24:27.873Z,0
2023-04-22T03:25:44.000Z,0
2023-04-22T03:27:00.235Z,0
2023-04-22T03:27:58.428Z,0
2023-04-22T03:29:32.621Z,0
2023-04-22T03:30:48.000Z,0
2023-04-22T03:32:05.037Z,0
2023-04-22T03:33:20.245Z,0
2023-04-22T03:34:36.410Z,0
2023-04-22T03:35:52.000Z,0
2023-04-22T03:37:08.000Z,0
2023-04-22T03:38:06.990Z,0
2023-04-22T03:39:41.000Z,0
2023-04-22T03:40:39.376Z,0
2023-04-22T03:42:13.000Z,0
2023-04-22T03:43:29.000Z,0
2023-04-22T03:44:45.955Z,0
2023-04-22T03:45:44.148Z,0
2023-04-22T03:47:18.375Z,0
2023-04-22T03:48:34.535Z,0
2023-04-22T03:49:50.759Z,0
2023-04-22T03:50:48.921Z,0
2023-04-22T03:52:22.000Z,5
2023-04-22T03:53:38.362Z,5
2023-04-22T03:54:54.000Z,5
2023-04-22T03:55:52.709Z,5
2023-04-22T03:57:08.901Z,5
2023-04-22T03:58:43.122Z,5
2023-04-22T03:59:59.327Z,5
2023-04-22T04:01:15.000Z,11
2023-04-22T04:02:31.000Z,11
2023-04-22T04:03:29.866Z,11
2023-04-22T04:04:46.059Z,11
2023-04-22T04:06:02.252Z,16
2023-04-22T04:07:36.000Z,16
2023-04-22T04:08:34.638Z,16
2023-04-22T04:10:08.857Z,16
2023-04-22T04:11:06.040Z,22
2023-04-22T04:12:40.000Z,22
2023-04-22T04:13:56.000Z,22
2023-04-22T04:15:12.653Z,22
2023-04-22T04:16:10.812Z,28
2023-04-22T04:17:27.005Z,28
2023-04-22T04:18:43.198Z,28
2023-04-22T04:20:17.000Z,33
2023-04-22T04:21:15.585Z,33
2023-04-22T04:22:49.799Z,33
2023-04-22T04:23:47.970Z,39
2023-04-22T04:25:22.000Z,39
2023-04-22T04:26:38.000Z,45
2023-04-22T04:27:54.000Z,45
2023-04-22T04:28:52.742Z,45
2023-04-22T04:30:25.000Z,50
2023-04-22T04:31:24.145Z,50
2023-04-22T04:32:58.362Z,50
2023-04-22T04:34:14.000Z,56
2023-04-22T04:35:12.724Z,56
2023-04-22T04:36:28.917Z,61
2023-04-22T04:38:03.000Z,61
2023-04-22T04:39:19.000Z,61
2023-04-22T04:40:35.517Z,67
2023-04-22T04:41:51.715Z,67
2023-04-22T04:43:07.000Z,67
2023-04-22T04:44:06.075Z,73
2023-04-22T04:45:40.000Z,73
2023-04-22T04:46:38.461Z,78
2023-04-22T04:48:11.692Z,78
2023-04-22T04:49:27.891Z,78
2023-04-22T04:50:44.079Z,84
2023-04-22T04:52:00.000Z,84
2023-04-22T04:53:16.000Z,90
2023-04-22T04:54:14.635Z,90
2023-04-22T04:56:15.000Z,90
2023-04-22T04:57:05.043Z,90
2023-04-22T04:58:21.244Z,95
2023-04-22T04:59:37.000Z,95
2023-04-22T05:00:53.628Z,95
2023-04-22T05:01:51.793Z,95
2023-04-22T05:03:26.021Z,106
2023-04-22T05:04:41.195Z,101
2023-04-22T05:05:57.000Z,106
2023-04-22T05:07:13.608Z,106
2023-04-22T05:08:29.774Z,106
2023-04-22T05:09:27.968Z,112
2023-04-22T05:11:02.000Z,112
2023-04-22T05:12:18.379Z,112
2023-04-22T05:13:34.586Z,112
2023-04-22T05:14:50.739Z,118
2023-04-22T05:16:06.000Z,118
2023-04-22T05:17:23.125Z,118
2023-04-22T05:18:21.318Z,123
2023-04-22T05:19:55.536Z,123
2023-04-22T05:21:10.000Z,123
2023-04-22T05:22:26.935Z,129
2023-04-22T05:23:43.142Z,129
2023-04-22T05:24:59.339Z,129
2023-04-22T05:26:15.525Z,135
2023-04-22T05:27:13.686Z,135
2023-04-22T05:28:47.879Z,135
2023-04-22T05:30:04.000Z,140
2023-04-22T05:31:20.265Z,140
2023-04-22T05:32:36.480Z,140
2023-04-22T05:33:52.686Z,140
2023-04-22T05:34:50.844Z,146
2023-04-22T05:36:25.000Z,146
2023-04-22T05:37:40.270Z,146
2023-04-22T05:38:56.000Z,151
2023-04-22T05:40:12.668Z,151
2023-04-22T05:41:28.826Z,151
2023-04-22T05:42:45.019Z,151
2023-04-22T05:44:01.242Z,157
2023-04-22T05:45:17.426Z,157
2023-04-22T05:46:33.000Z,157
2023-04-22T05:47:31.790Z,157
2023-04-22T05:49:06.014Z,163
2023-04-22T05:50:04.176Z,163
2023-04-22T05:51:38.394Z,163
2023-04-22T05:52:36.562Z,163
2023-04-22T05:54:10.000Z,168
2023-04-22T05:55:27.000Z,168
2023-04-22T05:57:09.000Z,168
2023-04-22T05:57:41.454Z,168
2023-04-22T05:59:15.679Z,168
2023-04-22T06:00:13.841Z,174
2023-04-22T06:01:48.034Z,174
2023-04-22T06:02:46.227Z,174
2023-04-22T06:04:20.443Z,174
2023-04-22T06:05:18.613Z,180
2023-04-22T06:06:52.829Z,180
2023-04-22T06:08:09.000Z,180
2023-04-22T06:09:25.217Z,180
2023-04-22T06:10:40.425Z,180
2023-04-22T06:11:56.594Z,185
2023-04-22T06:12:54.788Z,185
2023-04-22T06:14:29.008Z,185
2023-04-22T06:15:45.000Z,185
2023-04-22T06:17:01.000Z,191
2023-04-22T06:18:17.000Z,191
2023-04-22T06:19:33.773Z,191
2023-04-22T06:20:49.945Z,191
2023-04-22T06:22:06.137Z,191
2023-04-22T06:23:04.331Z,191
2023-04-22T06:24:38.000Z,196
2023-04-22T06:25:36.716Z,196
2023-04-22T06:27:09.957Z,196
2023-04-22T06:28:08.118Z,196
2023-04-22T06:29:42.333Z,202
2023-04-22T06:30:40.504Z,202
2023-04-22T06:32:14.000Z,202
2023-04-22T06:33:30.000Z,202
2023-04-22T06:34:47.117Z,202
2023-04-22T06:36:03.000Z,202
2023-04-22T06:37:19.497Z,208
2023-04-22T06:38:17.663Z,208
2023-04-22T06:39:51.856Z,202
2023-04-22T06:41:08.072Z,202
2023-04-22T06:42:24.000Z,202
2023-04-22T06:43:40.000Z,208
2023-04-22T06:44:37.646Z,208
2023-04-22T06:46:11.838Z,208
2023-04-22T06:47:28.031Z,208
2023-04-22T06:48:26.225Z,213
2023-04-22T06:49:59.464Z,213
2023-04-22T06:50:57.633Z,213
2023-04-22T06:52:58.000Z,213
2023-04-22T06:53:30.019Z,219
2023-04-22T06:55:04.253Z,219
2023-04-22T06:56:02.407Z,219
2023-04-22T06:57:36.629Z,219
2023-04-22T06:58:52.794Z,219
2023-04-22T07:00:09.021Z,219
2023-04-22T07:01:07.180Z,219
2023-04-22T07:02:41.373Z,219
2023-04-22T07:03:57.595Z,219
2023-04-22T07:04:55.761Z,219
2023-04-22T07:06:29.000Z,219
2023-04-22T07:07:46.172Z,219
2023-04-22T07:09:02.000Z,219
2023-04-22T07:10:18.000Z,230
2023-04-22T07:11:34.000Z,219
2023-04-22T07:12:32.921Z,225
2023-04-22T07:14:07.141Z,225
2023-04-22T07:15:23.430Z,219
2023-04-22T07:16:39.660Z,219
2023-04-22T07:17:55.817Z,219
2023-04-22T07:19:12.000Z,202
2023-04-22T07:20:28.232Z,219
2023-04-22T07:21:44.432Z,219
2023-04-22T07:23:00.619Z,219
2023-04-22T07:24:16.000Z,219
2023-04-22T07:25:32.000Z,219
2023-04-22T07:26:31.170Z,219
2023-04-22T07:28:05.396Z,219
2023-04-22T07:29:21.579Z,219
2023-04-22T07:30:37.782Z,225
2023-04-22T07:31:34.960Z,225
2023-04-22T07:33:09.154Z,225
2023-04-22T07:34:07.348Z,225
2023-04-22T07:35:41.563Z,225
2023-04-22T07:36:57.734Z,225
2023-04-22T07:38:13.951Z,225
2023-04-22T07:39:30.151Z,225
2023-04-22T07:40:46.000Z,230
2023-04-22T07:41:44.509Z,225
2023-04-22T07:43:18.000Z,230
2023-04-22T07:44:16.895Z,230
2023-04-22T07:45:51.110Z,230
2023-04-22T07:46:49.281Z,230
2023-04-22T07:48:22.000Z,236
2023-04-22T07:49:38.685Z,236
2023-04-22T07:50:54.905Z,241
2023-04-22T07:52:11.107Z,230
2023-04-22T07:53:27.290Z,236
2023-04-22T07:54:43.485Z,236
2023-04-22T07:55:59.000Z,241
2023-04-22T07:56:57.842Z,241
2023-04-22T07:58:32.073Z,241
2023-04-22T07:59:48.227Z,236
2023-04-22T08:01:04.420Z,241
2023-04-22T08:02:20.000Z,241
2023-04-22T08:03:36.805Z,236
2023-04-22T08:04:53.034Z,236
2023-04-22T08:06:08.000Z,236
2023-04-22T08:07:24.438Z,236
2023-04-22T08:08:40.593Z,241
2023-04-22T08:09:56.810Z,241
2023-04-22T08:11:12.000Z,241
2023-04-22T08:12:11.172Z,241
2023-04-22T08:13:45.390Z,241
2023-04-22T08:15:01.557Z,241
2023-04-22T08:16:17.750Z,247
2023-04-22T08:17:15.943Z,247
2023-04-22T08:18:50.165Z,247
2023-04-22T08:19:48.328Z,247
2023-04-22T08:21:22.521Z,247
2023-04-22T08:22:20.714Z,247
2023-04-22T08:24:21.000Z,247
2023-04-22T08:24:53.220Z,247
2023-04-22T08:26:27.413Z,247
2023-04-22T08:27:43.606Z,275
2023-04-22T08:28:59.000Z,247
2023-04-22T08:29:57.991Z,247
2023-04-22T08:31:32.209Z,247
2023-04-22T08:32:48.401Z,247
2023-04-22T08:34:04.000Z,253
2023-04-22T08:35:20.793Z,247
2023-04-22T08:36:18.954Z,247
2023-04-22T08:37:53.171Z,253
2023-04-22T08:39:09.380Z,247
2023-04-22T08:40:25.000Z,247
2023-04-22T08:41:41.000Z,253
2023-04-22T08:42:58.000Z,253
2023-04-22T08:44:40.000Z,253
2023-04-22T08:45:12.426Z,253
2023-04-22T08:46:46.618Z,253
2023-04-22T08:48:02.811Z,298
2023-04-22T08:49:19.003Z,253
2023-04-22T08:50:35.225Z,253
2023-04-22T08:51:51.421Z,253
2023-04-22T08:53:07.583Z,253
2023-04-22T08:54:23.816Z,270
2023-04-22T08:55:39.997Z,253
2023-04-22T08:56:55.000Z,253
2023-04-22T08:57:53.375Z,253
2023-04-22T08:59:27.597Z,253
2023-04-22T09:00:25.763Z,253
2023-04-22T09:01:41.958Z,253
2023-04-22T09:02:58.151Z,253
2023-04-22T09:04:32.000Z,286
2023-04-22T09:05:48.000Z,253
2023-04-22T09:07:04.737Z,253
2023-04-22T09:08:02.930Z,253
2023-04-22T09:09:19.126Z,253
2023-04-22T09:10:35.319Z,253
2023-04-22T09:12:09.000Z,258
2023-04-22T09:13:25.736Z,286
2023-04-22T09:14:42.026Z,258
2023-04-22T09:15:58.241Z,258
2023-04-22T09:17:14.000Z,258
2023-04-22T09:18:30.000Z,258
2023-04-22T09:19:46.000Z,258
2023-04-22T09:20:45.000Z,258
2023-04-22T09:22:19.000Z,264
2023-04-22T09:23:17.390Z,264
2023-04-22T09:24:51.000Z,258
2023-04-22T09:26:07.780Z,258
2023-04-22T09:27:23.975Z,275
2023-04-22T09:28:40.193Z,270
2023-04-22T09:29:38.366Z,258
2023-04-22T09:31:11.000Z,258
2023-04-22T09:32:27.811Z,258
2023-04-22T09:33:25.967Z,270
2023-04-22T09:35:00.000Z,270
2023-04-22T09:35:58.358Z,270
2023-04-22T09:37:32.575Z,270
2023-04-22T09:39:15.000Z,270
2023-04-22T09:40:04.979Z,270
2023-04-22T09:41:21.167Z,281
2023-04-22T09:42:37.335Z,270
2023-04-22T09:43:53.000Z,264
2023-04-22T09:45:09.726Z,281
2023-04-22T09:46:25.943Z,264
2023-04-22T09:48:07.000Z,298
2023-04-22T09:48:57.349Z,264
2023-04-22T09:50:13.523Z,264
2023-04-22T09:51:29.743Z,264
2023-04-22T09:52:45.935Z,264
2023-04-22T09:54:02.139Z,264
2023-04-22T09:55:18.330Z,264
2023-04-22T09:56:34.000Z,264
2023-04-22T09:57:50.696Z,270
2023-04-22T09:59:06.913Z,264
2023-04-22T10:00:05.087Z,264
2023-04-22T10:01:39.308Z,270
2023-04-22T10:02:55.000Z,264
2023-04-22T10:03:53.673Z,298
2023-04-22T10:05:27.000Z,264
2023-04-22T10:06:26.064Z,264
2023-04-22T10:07:59.313Z,281
2023-04-22T10:09:15.000Z,264
2023-04-22T10:10:31.000Z,270
2023-04-22T10:11:29.861Z,292
2023-04-22T10:13:04.056Z,264
2023-04-22T10:14:20.274Z,270
2023-04-22T10:15:36.000Z,275
2023-04-22T10:16:52.664Z,286
2023-04-22T10:18:08.862Z,270
2023-04-22T10:19:07.033Z,275
2023-04-22T10:20:41.000Z,270
2023-04-22T10:21:57.000Z,270
2023-04-22T10:23:13.619Z,270
2023-04-22T10:24:29.852Z,275
2023-04-22T10:25:45.059Z,298
2023-04-22T10:27:01.000Z,275
2023-04-22T10:28:17.000Z,270
2023-04-22T10:29:15.610Z,270
2023-04-22T10:30:49.000Z,270
2023-04-22T10:31:48.000Z,275
2023-04-22T10:33:22.000Z,286
2023-04-22T10:34:38.000Z,275
2023-04-22T10:35:54.000Z,275
2023-04-22T10:36:52.780Z,275
2023-04-22T10:38:26.996Z,275
2023-04-22T10:39:43.170Z,275
2023-04-22T10:40:59.366Z,275
2023-04-22T10:42:15.600Z,275
2023-04-22T10:43:30.000Z,292
2023-04-22T10:44:46.000Z,292
2023-04-22T10:46:29.000Z,281
2023-04-22T10:47:19.000Z,275
2023-04-22T10:48:35.000Z,281
2023-04-22T10:49:33.747Z,275
2023-04-22T10:51:07.000Z,275
2023-04-22T10:52:24.000Z,298
2023-04-22T10:53:40.332Z,281
2023-04-22T10:54:38.527Z,303
2023-04-22T10:56:12.722Z,292
2023-04-22T10:57:10.916Z,281
2023-04-22T10:58:45.000Z,292
2023-04-22T11:00:01.306Z,281
2023-04-22T11:01:17.000Z,281
2023-04-22T11:02:15.695Z,281
2023-04-22T11:03:48.906Z,281
2023-04-22T11:04:47.100Z,281
2023-04-22T11:06:21.000Z,281
2023-04-22T11:07:37.000Z,281
2023-04-22T11:08:53.684Z,281
2023-04-22T11:09:51.878Z,292
2023-04-22T11:11:25.124Z,286
2023-04-22T11:12:41.000Z,286
2023-04-22T11:13:57.484Z,286
2023-04-22T11:15:13.711Z,286
2023-04-22T11:16:11.873Z,286
2023-04-22T11:17:28.067Z,286
2023-04-22T11:18:44.262Z,292
2023-04-22T11:20:18.485Z,303
2023-04-22T11:21:34.652Z,292
2023-04-22T11:22:32.846Z,292
2023-04-22T11:24:07.077Z,292
2023-04-22T11:25:23.235Z,292
2023-04-22T11:26:21.430Z,292
2023-04-22T11:27:55.650Z,309
2023-04-22T11:29:11.000Z,298
2023-04-22T11:30:10.014Z,286
2023-04-22T11:31:44.239Z,292
2023-04-22T11:33:00.427Z,292
2023-04-22T11:33:57.614Z,298
2023-04-22T11:35:13.809Z,292
2023-04-22T11:36:48.000Z,309
2023-04-22T11:38:04.000Z,298
2023-04-22T11:39:46.000Z,303
2023-04-22T11:40:18.587Z,298
2023-04-22T11:41:52.815Z,298
2023-04-22T11:42:50.976Z,298
2023-04-22T11:44:25.000Z,303
2023-04-22T11:45:23.365Z,320
2023-04-22T11:46:57.589Z,298
2023-04-22T11:47:55.754Z,303
2023-04-22T11:49:29.949Z,303
2023-04-22T11:50:46.000Z,298
2023-04-22T11:52:02.339Z,303
2023-04-22T11:53:18.557Z,303
2023-04-22T11:54:34.000Z,315
2023-04-22T11:55:32.922Z,303
2023-04-22T11:57:07.151Z,315
2023-04-22T11:58:22.355Z,315
2023-04-22T11:59:38.000Z,309
2023-04-22T12:00:36.718Z,303
2023-04-22T12:02:10.946Z,309
2023-04-22T12:03:27.000Z,315
2023-04-22T12:04:43.338Z,309
2023-04-22T12:06:25.000Z,309
2023-04-22T12:07:15.691Z,309
2023-04-22T12:08:31.920Z,309
2023-04-22T12:09:48.080Z,309
2023-04-22T12:11:04.000Z,309
2023-04-22T12:12:20.507Z,315
2023-04-22T12:13:18.663Z,326
2023-04-22T12:14:52.858Z,309
2023-04-22T12:16:09.000Z,309
2023-04-22T12:17:25.267Z,315
2023-04-22T12:18:41.463Z,315
2023-04-22T12:19:57.658Z,309
2023-04-22T12:21:12.000Z,309
2023-04-22T12:22:29.000Z,315
2023-04-22T12:23:45.000Z,315
2023-04-22T12:24:43.430Z,309
2023-04-22T12:26:17.660Z,315
2023-04-22T12:27:15.819Z,309
2023-04-22T12:28:50.000Z,315
2023-04-22T12:30:06.209Z,315
2023-04-22T12:31:04.403Z,320
2023-04-22T12:32:38.000Z,309
2023-04-22T12:33:54.829Z,309
2023-04-22T12:35:10.000Z,309
2023-04-22T12:36:27.000Z,303
2023-04-22T12:37:43.000Z,309
2023-04-22T12:38:59.570Z,326
2023-04-22T12:40:15.000Z,315
2023-04-22T12:41:31.000Z,309
2023-04-22T12:42:48.178Z,309
2023-04-22T12:44:04.369Z,298
2023-04-22T12:45:20.000Z,309
2023-04-22T12:46:18.738Z,320
2023-04-22T12:47:51.976Z,343
2023-04-22T12:48:50.144Z,326
2023-04-22T12:50:24.377Z,331
2023-04-22T12:51:40.565Z,343
2023-04-22T12:52:56.000Z,326
2023-04-22T12:54:12.000Z,315
2023-04-22T12:55:29.140Z,315
2023-04-22T12:56:45.341Z,320
2023-04-22T12:58:01.543Z,315
2023-04-22T12:59:17.725Z,315
2023-04-22T13:00:33.000Z,315
2023-04-22T13:01:32.092Z,315
2023-04-22T13:03:06.309Z,315
2023-04-22T13:04:21.517Z,315
2023-04-22T13:05:37.715Z,309
2023-04-22T13:06:53.888Z,315
2023-04-22T13:08:10.083Z,315
2023-04-22T13:09:26.307Z,315
2023-04-22T13:10:42.494Z,315
2023-04-22T13:11:58.696Z,315
2023-04-22T13:12:56.863Z,315
2023-04-22T13:14:13.057Z,315
2023-04-22T13:15:47.252Z,315
2023-04-22T13:17:03.479Z,315
2023-04-22T13:18:19.664Z,315
2023-04-22T13:19:35.837Z,315
2023-04-22T13:20:52.060Z,315
2023-04-22T13:22:07.274Z,315
2023-04-22T13:23:23.473Z,320
2023-04-22T13:24:21.632Z,320
2023-04-22T13:25:55.856Z,326
2023-04-22T13:27:12.022Z,320
2023-04-22T13:28:28.000Z,320
2023-04-22T13:29:44.437Z,326
2023-04-22T13:31:00.000Z,382
2023-04-22T13:32:16.000Z,444
2023-04-22T13:33:33.015Z,472
2023-04-22T13:34:49.212Z,517
2023-04-22T13:36:05.415Z,613
2023-04-22T13:37:03.581Z,691
2023-04-22T13:38:37.000Z,731
2023-04-22T13:39:53.000Z,776
2023-04-22T13:41:10.188Z,916
2023-04-22T13:42:25.414Z,1265
2023-04-22T13:43:41.596Z,1811
2023-04-22T13:44:57.000Z,1760
2023-04-22T13:46:13.992Z,1456
2023-04-22T13:47:12.159Z,1254
2023-04-22T13:48:28.354Z,1147
2023-04-22T13:49:44.549Z,1091
2023-04-22T13:51:18.780Z,1147
2023-04-22T13:52:34.965Z,1215
2023-04-22T13:53:51.000Z,1102
2023-04-22T13:54:49.331Z,911
2023-04-22T13:56:23.552Z,821
2023-04-22T13:57:39.721Z,776
2023-04-22T13:58:55.942Z,748
2023-04-22T14:00:12.132Z,714
2023-04-22T14:01:28.000Z,675
2023-04-22T14:02:44.000Z,506
2023-04-22T14:04:00.727Z,388
2023-04-22T14:04:58.892Z,365
2023-04-22T14:06:32.123Z,360
2023-04-22T14:07:30.299Z,360
2023-04-22T14:09:04.000Z,365
2023-04-22T14:10:20.000Z,360
2023-04-22T14:11:36.000Z,360
2023-04-22T14:12:53.098Z,371
2023-04-22T14:14:09.298Z,365
2023-04-22T14:15:07.471Z,365
2023-04-22T14:16:41.667Z,365
2023-04-22T14:17:57.000Z,365
2023-04-22T14:19:14.085Z,365
2023-04-22T14:20:12.252Z,371
2023-04-22T14:21:46.000Z,371
2023-04-22T14:23:02.000Z,371
2023-04-22T14:24:18.839Z,382
2023-04-22T14:25:17.034Z,376
2023-04-22T14:26:51.260Z,382
2023-04-22T14:27:49.424Z,388
2023-04-22T14:29:23.656Z,393
2023-04-22T14:30:21.814Z,399
2023-04-22T14:31:55.000Z,399
2023-04-22T14:32:53.222Z,399
2023-04-22T14:34:27.417Z,399
2023-04-22T14:35:43.000Z,410
2023-04-22T14:36:59.835Z,416
2023-04-22T14:38:16.022Z,427
2023-04-22T14:39:32.000Z,433
2023-04-22T14:40:48.411Z,433
2023-04-22T14:42:04.589Z,450
2023-04-22T14:43:20.784Z,444
2023-04-22T14:44:36.980Z,444
2023-04-22T14:45:53.000Z,450
2023-04-22T14:47:09.000Z,444
2023-04-22T14:48:25.000Z,444
2023-04-22T14:49:41.000Z,444
2023-04-22T14:50:39.955Z,455
2023-04-22T14:52:13.187Z,461
2023-04-22T14:53:29.390Z,461
2023-04-22T14:54:45.000Z,461
2023-04-22T14:55:43.752Z,466
2023-04-22T14:56:59.947Z,478
2023-04-22T14:58:16.142Z,495
2023-04-22T14:59:50.368Z,489
2023-04-22T15:01:06.000Z,495
2023-04-22T15:02:22.000Z,495
2023-04-22T15:03:38.944Z,506
2023-04-22T15:04:55.118Z,489
2023-04-22T15:06:11.340Z,489
2023-04-22T15:07:27.535Z,500
2023-04-22T15:08:43.703Z,500
2023-04-22T15:10:00.000Z,506
2023-04-22T15:10:58.215Z,517
2023-04-22T15:12:32.000Z,523
2023-04-22T15:13:48.000Z,528
2023-04-22T15:15:04.000Z,540
2023-04-22T15:16:02.997Z,534
2023-04-22T15:17:37.192Z,528
2023-04-22T15:18:53.387Z,523
2023-04-22T15:19:51.583Z,545
2023-04-22T15:21:25.000Z,540
2023-04-22T15:22:23.973Z,545
2023-04-22T15:23:58.190Z,545
2023-04-22T15:25:14.364Z,540
2023-04-22T15:26:30.559Z,540
2023-04-22T15:27:28.754Z,545
2023-04-22T15:28:44.949Z,562
2023-04-22T15:30:19.290Z,556
2023-04-22T15:31:17.466Z,534
2023-04-22T15:32:51.681Z,523
2023-04-22T15:33:49.857Z,517
2023-04-22T15:35:24.070Z,517
2023-04-22T15:36:22.247Z,511
2023-04-22T15:38:22.000Z,500
2023-04-22T15:39:12.637Z,540
2023-04-22T15:40:28.000Z,540
2023-04-22T15:41:27.028Z,562
2023-04-22T15:43:01.250Z,568
2023-04-22T15:44:17.441Z,545
2023-04-22T15:46:00.000Z,545
2023-04-22T15:46:48.852Z,579
2023-04-22T15:48:05.000Z,579
2023-04-22T15:49:03.216Z,585
2023-04-22T15:50:37.431Z,528
2023-04-22T15:51:53.607Z,624
2023-04-22T15:53:09.802Z,596
2023-04-22T15:54:07.997Z,607
2023-04-22T15:55:42.192Z,573
2023-04-22T15:56:58.404Z,585
2023-04-22T15:58:14.000Z,573
2023-04-22T15:59:12.778Z,585
2023-04-22T16:00:46.992Z,607
2023-04-22T16:01:45.169Z,635
2023-04-22T16:03:18.000Z,624
2023-04-22T16:04:34.576Z,646
2023-04-22T16:05:50.000Z,613
2023-04-22T16:06:48.966Z,601
2023-04-22T16:08:05.162Z,511
2023-04-22T16:09:39.000Z,613
2023-04-22T16:10:55.000Z,601
2023-04-22T16:12:11.766Z,579
2023-04-22T16:13:27.968Z,573
2023-04-22T16:14:26.139Z,551
2023-04-22T16:15:42.335Z,568
2023-04-22T16:17:16.530Z,528
2023-04-22T16:18:32.000Z,596
2023-04-22T16:19:30.921Z,641
2023-04-22T16:21:05.117Z,658
2023-04-22T16:22:03.311Z,691
2023-04-22T16:23:37.531Z,725
2023-04-22T16:24:35.824Z,720
2023-04-22T16:26:10.020Z,658
2023-04-22T16:27:08.214Z,658
2023-04-22T16:28:42.441Z,663
2023-04-22T16:29:58.605Z,568
2023-04-22T16:31:14.801Z,663
2023-04-22T16:32:31.000Z,669
2023-04-22T16:33:47.000Z,686
2023-04-22T16:34:45.387Z,810
2023-04-22T16:36:19.613Z,1383
2023-04-22T16:37:17.777Z,1721
2023-04-22T16:38:51.989Z,1608
2023-04-22T16:40:08.000Z,1541
2023-04-22T16:41:24.000Z,1563
2023-04-22T16:42:40.559Z,1496
2023-04-22T16:43:56.770Z,1344
2023-04-22T16:45:12.000Z,1265
2023-04-22T16:46:29.165Z,1260
2023-04-22T16:47:27.340Z,1164
2023-04-22T16:49:00.000Z,1271
2023-04-22T16:50:16.000Z,1023
2023-04-22T16:51:32.943Z,990
2023-04-22T16:52:31.139Z,1136
2023-04-22T16:54:05.369Z,1237
2023-04-22T16:55:21.000Z,1158
2023-04-22T16:56:37.748Z,1186
2023-04-22T16:57:53.944Z,1265
2023-04-22T16:59:10.000Z,1293
2023-04-22T17:00:26.339Z,1203
2023-04-22T17:01:42.522Z,1040
2023-04-22T17:02:58.728Z,753
2023-04-22T17:04:14.000Z,669
2023-04-22T17:05:13.092Z,562
2023-04-22T17:06:46.332Z,506
2023-04-22T17:08:02.000Z,601
2023-04-22T17:09:18.000Z,770
2023-04-22T17:10:34.913Z,916
2023-04-22T17:11:51.000Z,613
2023-04-22T17:13:07.299Z,495
2023-04-22T17:14:23.476Z,506
2023-04-22T17:15:21.671Z,489
2023-04-22T17:16:37.866Z,348
2023-04-22T17:18:38.000Z,258
2023-04-22T17:19:28.000Z,219
2023-04-22T17:20:44.450Z,219
2023-04-22T17:22:00.662Z,185
2023-04-22T17:23:16.857Z,157
2023-04-22T17:24:32.000Z,146
2023-04-22T17:25:30.248Z,146
2023-04-22T17:27:04.000Z,146
2023-04-22T17:28:20.654Z,146
2023-04-22T17:29:36.000Z,140
2023-04-22T17:30:35.029Z,163
2023-04-22T17:32:09.000Z,174
2023-04-22T17:33:25.000Z,151
2023-04-22T17:34:41.000Z,129
2023-04-22T17:35:57.000Z,123
2023-04-22T17:37:14.019Z,135
2023-04-22T17:38:30.220Z,135
2023-04-22T17:39:46.412Z,123
2023-04-22T17:41:02.000Z,106
2023-04-22T17:42:17.000Z,90
2023-04-22T17:43:15.996Z,90
2023-04-22T17:44:50.216Z,95